Huvudsida
METAR-TAF:

METAR-TAF

Flygplatser :

Pärnu flygplats

Pärnu, Estland

latitud: 58-25-09N, longitud: 024-28-22E, höjd: 14 m

Aktuellt väderrapport

Denna rapport gjordes för 17 minuter sedan, klockan 05:50 UTC
Vind 12 kt från syd/sydväst
Temperatur 8°C
Fuktighet 87%
Tryck 1037 hPa
Sikt 10 km eller mer
Mulet på en höjd av 2900 ft

METAR: EEPU 160550Z 21012KT 9999 OVC029 08/06 Q1037

Tid: 08:07 (06:07 UTC)


TAF: saknas

Aktuella väderrapporter och prognoser från 4000 flygplatser (METAR- och TAF-rapporter).

De tillgängliga stationerna syns som gula och röda prickar på kartan.

För musen över prickarna för att se namnen på stationerna.

Klicka sedan för att få väderrapporter och prognoser.

För att ändra kartan: Klicka på de gröna knapparna med ett svart kors på för att zooma in; den gröna knappen med ett streck på för att zooma ut; eller på de gröna pilarna för angränsande kartor.


METAR-TAF: